Ride Results

Raglan Endurance Ride (05-04-2014)
Ride distance: 80.0 km

Outcomes - Raglan Endurance Ride (05-04-2014)
Division No. of Entries Retired / DNE Completed Withdrawn Ineligible V/O Percentage Completed
HW 5 - 5 - - - 100.00%
MW 17 - 14 3 - - 82.35%
LW 10 - 8 - - 2 80.00%
JN 4 - 4 - - - 100.00%
Totals 36 - 31 3 - 2 86.11%
Results - Raglan Endurance Ride (05-04-2014)
No. Rider Horse Place Time Leg Speeds Total
Km/Hr
H/R bpm
Heavyweight
197 Dennis Moore Boss 1 (BC) 7:04:00 10.8, 11.8 11.32 34, 38, 41 (Avg:39)
233 Frank Cullen Chappy 2 7:06:00 11.0, 11.5 11.27 45, 44, 57 (Avg:50)
231 Tim Wall Musical Gully Samba 3 7:08:00 10.8, 11.5 11.21 29, 42, 55 (Avg:48)
167 Bill Verspaandonk Moulin Rouge 4 7:17:00 10.3, 11.7 10.98 35, 45, 54 (Avg:49)
58 Dianne Tobin Chimera 5 8:00:00 9.9, 10.0 10.00 33, 39, 50 (Avg:44)
Middleweight
13 Linda Tanian Castlebar Contraband 1 6:03:00 12.2, 14.3 13.22 26, 42, 40 (Avg:41)
84 Kristie Taprell Castlebar Belair 1 (BC) 6:03:00 12.2, 14.3 13.22 28, 39, 38 (Avg:38)
42 Hans Peuker Marybank Celia 3 6:08:00 12.6, 13.4 13.04 30, 40, 46 (Avg:43)
209 Kerrin Turney Kismet 4 6:35:00 12.2, 12.0 12.15 33, 44, 53 (Avg:48)
756 Emma Wouters Weerina Arabian Princess 5 6:50:00 10.8, 12.6 11.71 30, 32, 41 (Avg:36)
173 Robyn Albers Stanley 6 6:53:00 11.9, 11.3 11.62 33, 38, 42 (Avg:40)
172 Michael Cadman A'landell Kwaint 6 6:53:00 11.9, 11.3 11.62 32, 42, 46 (Avg:44)
757 Angelika Anderson Classic Casta Diva 8 7:04:00 10.8, 11.8 11.32 42, 45, 56 (Avg:50)
189 Sally Cowan Willabee Park Ackwell 9 7:06:00 11.0, 11.5 11.27 38, 38, 50 (Avg:44)
131 Simon Thomas Rocky Point Black Xanthanite 10 7:14:00 10.1, 12.1 11.06 33, 47, 50 (Avg:48)
755 Nicole Pearson Passion Park Simba 11 8:00:00 9.9, 10.0 10.00 30, 45, 46 (Avg:45)
181 Sharee Court Makaveli Soulja 12 8:13:00 9.7, 9.6 9.74 36, 44, 53 (Avg:48)
89 Sheryl Herbert Krishlah Maleeka 12 8:13:00 9.7, 9.6 9.74 35, 40, 52 (Avg:46)
258 Helen Yeoman Burren-dah Jemilla 12 8:13:00 9.7, 9.6 9.74 26, 40, 41 (Avg:40)
758 Tarryn Marshall Dara Park Alikhan Withdrawn L1 0:00:00 - - 39, 45 (Avg:45)
54 Rowena McLean Lynandra Park Trinity Withdrawn L1 0:00:00 - - 35, 53 (Avg:53)
44 Vanessa Smith Dunbraeton Narla Withdrawn P/R 0:00:00 - - 36
Lightweight
183 Nicky Robinson Zharion 1 (BC) 6:38:00 11.5, 12.6 12.06 33, 42, 47 (Avg:44)
742 Gina Thompson Bellarine Rosebud 2 6:50:00 10.8, 12.6 11.71 26, 36, 38 (Avg:37)
17 Sallyann Duke Ramigil Sapphyre 3 6:54:00 10.3, 13.1 11.59 32, 45, 56 (Avg:50)
85 Belinda Kolek Splitters Creek Vienna 3 6:54:00 10.3, 13.1 11.59 34, 39, 45 (Avg:42)
161 Shannon Decker Rocky Point Blue Kyanite 5 7:44:00 10.1, 10.5 10.34 36, 40, 43 (Avg:41)
151 Kasey Thomas Morundah Just Sharii 5 7:44:00 10.1, 10.5 10.34 30, 39, 45 (Avg:42)
91 Kim Noble Aitchisonview Maverick 7 8:14:00 8.8, 10.8 9.72 42, 48, 43 (Avg:45)
250 Kerry Alderton Mireen Yasmeera 8 8:31:00 9.4, 9.3 9.39 32, 40, 44 (Avg:42)
230 Rebecca Stoneman Doug Metabolics severe L2 0:00:00 11.5, 12.6 - 32, 41, 44 (Avg:42)
256 Marieke Featonby Fairview Ethereal Dream Lame L1 0:00:00 11.0 - 32, 37 (Avg:37)
Junior
262 Bonnie Player Rafeeq 1 (BC) 6:50:00 10.8, 12.6 11.71 30, 35, 42 (Avg:38)
269 Jena Crowe Summit Park Shenay 2 8:00:00 9.9, 10.0 10.00 34, 37, 42 (Avg:39)
90 Alison Noble Lord Alfred of Seven Oaks 3 8:14:00 8.8, 10.8 9.72 32, 40, 56 (Avg:48)
748 Jasmine Venezia Entitain 4 8:31:00 9.4, 9.3 9.39 35, 48, 45 (Avg:46)